Time;durP1;ratioP1;P1;durP2;ratioP2;P2;SDS_P1;SDS_P2;PMS_P1;PMS_P2;Temp;Humidity;BMP_temperature;BMP_pressure;BME280_temperature;BME280_humidity;BME280_pressure;Samples;Min_cycle;Max_cycle;Signal;HPM_P1;HPM_P2
2023/02/22 00:00:48;;;;;;;7.97;7.13;;;;;;;;;;5050578;28;20468;-84
2023/02/22 00:03:16;;;;;;;7.90;6.45;;;;;;;;;;5036351;28;20454;-84
2023/02/22 00:05:46;;;;;;;6.70;6.03;;;;;;;;;;5048108;28;20389;-84
2023/02/22 00:08:12;;;;;;;6.13;5.53;;;;;;;;;;5036339;28;20386;-84
2023/02/22 00:10:38;;;;;;;6.57;5.97;;;;;;;;;;5054196;28;20381;-84
2023/02/22 00:13:06;;;;;;;6.43;5.65;;;;;;;;;;5054087;28;20385;-84
2023/02/22 00:15:32;;;;;;;5.37;4.90;;;;;;;;;;5053984;28;20533;-83
2023/02/22 00:17:58;;;;;;;5.90;5.30;;;;;;;;;;5054094;28;20381;-83
2023/02/22 00:20:24;;;;;;;6.60;6.00;;;;;;;;;;5036129;28;20413;-84
2023/02/22 00:22:52;;;;;;;7.07;6.18;;;;;;;;;;5053801;28;20409;-84
2023/02/22 00:25:19;;;;;;;6.80;6.10;;;;;;;;;;5053888;28;20920;-84
2023/02/22 00:27:51;;;;;;;7.13;6.40;;;;;;;;;;5053779;28;20386;-84
2023/02/22 00:30:22;;;;;;;7.50;6.00;;;;;;;;;;5053584;28;20377;-84
2023/02/22 00:32:48;;;;;;;6.38;5.78;;;;;;;;;;5035634;28;20900;-84
2023/02/22 00:35:19;;;;;;;6.63;5.60;;;;;;;;;;5053724;28;20400;-84
2023/02/22 00:37:52;;;;;;;6.68;5.97;;;;;;;;;;5036000;28;20400;-84
2023/02/22 00:40:22;;;;;;;6.63;5.82;;;;;;;;;;5053669;28;20385;-84
2023/02/22 00:42:49;;;;;;;6.40;5.80;;;;;;;;;;5053223;28;20479;-84
2023/02/22 00:45:16;;;;;;;8.23;5.95;;;;;;;;;;5053525;28;20460;-84
2023/02/22 00:47:42;;;;;;;7.95;6.72;;;;;;;;;;5053274;28;20409;-84
2023/02/22 00:50:08;;;;;;;7.78;6.28;;;;;;;;;;5053313;28;20428;-84
2023/02/22 00:52:35;;;;;;;10.07;7.20;;;;;;;;;;5053359;28;20427;-84
2023/02/22 00:55:01;;;;;;;10.93;7.78;;;;;;;;;;5060760;28;20399;-84
2023/02/22 00:57:27;;;;;;;7.90;5.65;;;;;;;;;;5026876;28;20804;-84
2023/02/22 00:59:53;;;;;;;6.43;5.68;;;;;;;;;;5063952;28;20383;-84
2023/02/22 01:02:19;;;;;;;6.30;5.70;;;;;;;;;;5045165;28;20833;-84
2023/02/22 01:04:45;;;;;;;6.30;5.70;;;;;;;;;;5053122;28;20405;-84
2023/02/22 01:07:12;;;;;;;7.03;5.40;;;;;;;;;;5035414;28;20409;-84
2023/02/22 01:09:40;;;;;;;6.72;5.72;;;;;;;;;;5053132;28;20394;-84
2023/02/22 01:12:06;;;;;;;6.20;5.60;;;;;;;;;;5052811;28;20377;-84
2023/02/22 01:14:33;;;;;;;6.80;5.97;;;;;;;;;;5052976;28;20734;-84
2023/02/22 01:16:59;;;;;;;6.77;6.07;;;;;;;;;;5052086;28;20390;-84
2023/02/22 01:19:25;;;;;;;6.10;5.45;;;;;;;;;;5042680;28;20912;-84
2023/02/22 01:21:51;;;;;;;6.80;5.57;;;;;;;;;;5048959;28;20397;-84
2023/02/22 01:24:18;;;;;;;6.28;5.68;;;;;;;;;;5052583;28;20511;-84
2023/02/22 01:26:48;;;;;;;5.82;5.22;;;;;;;;;;5052977;28;20373;-84
2023/02/22 01:29:15;;;;;;;6.07;5.47;;;;;;;;;;5052720;28;20416;-84
2023/02/22 01:31:45;;;;;;;6.47;5.82;;;;;;;;;;5034546;28;20875;-84
2023/02/22 01:34:11;;;;;;;6.18;5.57;;;;;;;;;;5052430;28;20389;-84
2023/02/22 01:36:38;;;;;;;6.28;5.47;;;;;;;;;;5052562;28;20381;-84
2023/02/22 01:39:05;;;;;;;5.20;4.70;;;;;;;;;;5052463;28;20393;-84
2023/02/22 01:41:31;;;;;;;6.22;5.07;;;;;;;;;;5051142;28;20408;-84
2023/02/22 01:43:57;;;;;;;5.60;5.10;;;;;;;;;;5052101;28;20409;-84
2023/02/22 01:46:24;;;;;;;5.72;4.82;;;;;;;;;;5054940;28;20746;-84
2023/02/22 01:48:53;;;;;;;5.03;4.57;;;;;;;;;;5052211;28;20456;-84
2023/02/22 01:51:25;;;;;;;6.40;4.80;;;;;;;;;;5052130;28;20429;-83
2023/02/22 01:53:51;;;;;;;4.85;4.45;;;;;;;;;;5052074;28;20393;-83
2023/02/22 01:56:18;;;;;;;4.90;4.40;;;;;;;;;;5052029;28;20869;-84
2023/02/22 01:58:46;;;;;;;4.85;4.45;;;;;;;;;;5052172;28;20396;-84
2023/02/22 02:01:12;;;;;;;5.20;4.70;;;;;;;;;;5051558;28;20377;-84
2023/02/22 02:03:40;;;;;;;4.88;4.47;;;;;;;;;;5051866;28;20490;-84
2023/02/22 02:06:10;;;;;;;5.22;4.72;;;;;;;;;;5052008;28;20380;-84
2023/02/22 02:08:41;;;;;;;5.32;4.82;;;;;;;;;;5051887;28;20424;-84
2023/02/22 02:11:08;;;;;;;5.50;5.00;;;;;;;;;;5051911;28;20428;-84
2023/02/22 02:13:34;;;;;;;5.35;4.85;;;;;;;;;;5051772;28;20484;-84
2023/02/22 02:16:00;;;;;;;5.22;4.70;;;;;;;;;;5051796;28;20537;-84
2023/02/22 02:18:27;;;;;;;5.00;4.60;;;;;;;;;;5051625;28;20496;-83
2023/02/22 02:20:53;;;;;;;5.30;4.80;;;;;;;;;;5051600;28;20888;-84
2023/02/22 02:23:50;;;;;;;5.72;5.00;;;;;;;;;;5051406;28;20496;-84
2023/02/22 02:26:37;;;;;;;5.28;4.78;;;;;;;;;;5033806;28;20396;-84
2023/02/22 02:29:03;;;;;;;5.90;4.57;;;;;;;;;;5050671;28;20457;-84
2023/02/22 02:31:29;;;;;;;5.77;5.17;;;;;;;;;;5051575;28;20926;-84
2023/02/22 02:34:14;;;;;;;5.03;4.53;;;;;;;;;;5051405;28;20389;-83
2023/02/22 02:36:45;;;;;;;5.50;4.90;;;;;;;;;;5051458;28;20382;-84
2023/02/22 02:39:20;;;;;;;9.77;7.03;;;;;;;;;;5051357;28;20435;-84
2023/02/22 02:41:50;;;;;;;9.50;7.40;;;;;;;;;;5033217;28;20760;-84
2023/02/22 02:44:21;;;;;;;9.80;7.30;;;;;;;;;;5051170;28;20409;-84
2023/02/22 02:46:50;;;;;;;10.18;7.10;;;;;;;;;;5051303;28;20389;-84
2023/02/22 02:49:21;;;;;;;7.32;6.07;;;;;;;;;;5051141;28;20863;-84
2023/02/22 02:51:49;;;;;;;6.15;5.50;;;;;;;;;;5047266;28;20493;-84
2023/02/22 02:54:17;;;;;;;7.70;5.55;;;;;;;;;;5037826;28;20412;-83
2023/02/22 02:56:43;;;;;;;6.20;5.57;;;;;;;;;;5050509;28;20379;-84
2023/02/22 02:59:25;;;;;;;5.80;5.20;;;;;;;;;;5049529;28;20385;-84
2023/02/22 03:01:57;;;;;;;5.95;5.35;;;;;;;;;;5030951;28;20909;-84
2023/02/22 03:04:42;;;;;;;6.03;5.43;;;;;;;;;;5051040;28;20628;-84
2023/02/22 03:07:19;;;;;;;5.95;5.45;;;;;;;;;;5033113;28;20416;-84
2023/02/22 03:09:45;;;;;;;5.88;5.35;;;;;;;;;;5050849;28;20444;-84
2023/02/22 03:12:11;;;;;;;8.15;5.40;;;;;;;;;;5050874;28;20431;-84
2023/02/22 03:15:00;;;;;;;6.88;6.18;;;;;;;;;;5050916;28;20393;-83
2023/02/22 03:17:32;;;;;;;5.97;5.47;;;;;;;;;;5049995;28;20438;-84
2023/02/22 03:20:03;;;;;;;6.20;5.20;;;;;;;;;;5050804;28;20476;-84
2023/02/22 03:22:31;;;;;;;6.57;5.50;;;;;;;;;;5050722;28;20449;-84
2023/02/22 03:25:17;;;;;;;5.85;5.20;;;;;;;;;;5050915;28;20475;-83
2023/02/22 03:27:52;;;;;;;6.15;5.55;;;;;;;;;;5050867;28;20446;-84
2023/02/22 03:30:31;;;;;;;6.27;5.57;;;;;;;;;;5050741;28;20377;-83
2023/02/22 03:32:59;;;;;;;8.52;7.25;;;;;;;;;;5053336;28;20379;-83
2023/02/22 03:35:29;;;;;;;5.70;5.18;;;;;;;;;;5050731;28;20866;-84
2023/02/22 03:37:57;;;;;;;6.50;5.90;;;;;;;;;;5047508;28;20387;-84
2023/02/22 03:40:33;;;;;;;6.85;5.72;;;;;;;;;;5051565;28;20381;-84
2023/02/22 03:43:03;;;;;;;5.82;5.25;;;;;;;;;;5054415;28;20397;-84
2023/02/22 03:45:30;;;;;;;6.30;5.60;;;;;;;;;;5055540;28;20456;-83
2023/02/22 03:48:07;;;;;;;7.55;5.50;;;;;;;;;;5060794;28;20378;-83
2023/02/22 03:50:36;;;;;;;6.00;5.38;;;;;;;;;;5034537;28;20446;-84
2023/02/22 03:53:02;;;;;;;7.00;5.63;;;;;;;;;;5041117;28;20384;-84
2023/02/22 03:55:30;;;;;;;5.85;5.35;;;;;;;;;;5054500;28;20500;-84
2023/02/22 03:57:57;;;;;;;6.13;5.53;;;;;;;;;;5054368;28;20467;-83
2023/02/22 04:00:25;;;;;;;6.38;5.78;;;;;;;;;;5061830;28;20407;-84
2023/02/22 04:02:51;;;;;;;6.57;5.38;;;;;;;;;;5060268;28;20404;-83
2023/02/22 04:05:17;;;;;;;5.97;5.00;;;;;;;;;;5054230;28;20374;-84
2023/02/22 04:07:43;;;;;;;7.15;5.28;;;;;;;;;;5054215;28;20472;-84
2023/02/22 04:10:11;;;;;;;6.22;5.63;;;;;;;;;;5054153;28;20382;-84
2023/02/22 04:12:37;;;;;;;5.35;4.80;;;;;;;;;;5054048;28;20440;-84
2023/02/22 04:15:04;;;;;;;5.55;5.05;;;;;;;;;;5036439;28;20429;-84
2023/02/22 04:17:30;;;;;;;6.53;5.22;;;;;;;;;;5054066;28;20468;-83
2023/02/22 04:19:56;;;;;;;6.28;5.10;;;;;;;;;;5036059;28;20485;-84
2023/02/22 04:22:22;;;;;;;6.38;5.07;;;;;;;;;;5053813;28;20384;-84
2023/02/22 04:24:49;;;;;;;6.22;5.13;;;;;;;;;;5053363;28;20527;-84
2023/02/22 04:27:15;;;;;;;5.28;4.78;;;;;;;;;;5053750;28;20416;-84
2023/02/22 04:29:42;;;;;;;6.05;5.00;;;;;;;;;;5053815;28;20388;-84
2023/02/22 04:32:08;;;;;;;5.22;4.72;;;;;;;;;;5053373;28;20374;-84
2023/02/22 04:34:34;;;;;;;5.55;5.05;;;;;;;;;;5053779;28;20382;-84
2023/02/22 04:37:00;;;;;;;5.35;4.78;;;;;;;;;;5053503;28;20945;-84
2023/02/22 04:39:26;;;;;;;7.65;5.45;;;;;;;;;;5053583;28;20873;-84
2023/02/22 04:41:52;;;;;;;6.28;5.05;;;;;;;;;;5035813;28;20385;-84
2023/02/22 04:44:18;;;;;;;5.60;4.90;;;;;;;;;;5051516;28;20920;-84
2023/02/22 04:46:47;;;;;;;6.55;4.63;;;;;;;;;;5036963;28;20466;-83
2023/02/22 04:49:13;;;;;;;5.22;4.72;;;;;;;;;;5040436;28;20377;-83
2023/02/22 04:51:40;;;;;;;4.97;4.57;;;;;;;;;;5047064;28;20440;-83
2023/02/22 04:54:06;;;;;;;5.65;4.95;;;;;;;;;;5048656;28;20394;-83
2023/02/22 04:56:32;;;;;;;5.15;4.65;;;;;;;;;;5053292;28;20392;-83
2023/02/22 04:58:58;;;;;;;5.32;4.82;;;;;;;;;;5046923;28;20741;-85
2023/02/22 05:01:24;;;;;;;5.38;4.88;;;;;;;;;;5048794;28;20408;-85
2023/02/22 05:03:50;;;;;;;5.93;4.85;;;;;;;;;;5053098;28;20405;-85
2023/02/22 05:06:17;;;;;;;6.30;5.30;;;;;;;;;;5041701;28;20398;-84
2023/02/22 05:08:43;;;;;;;5.32;4.82;;;;;;;;;;5043397;28;20382;-83
2023/02/22 05:11:09;;;;;;;5.63;5.10;;;;;;;;;;5042662;28;20380;-84
2023/02/22 05:13:35;;;;;;;5.95;5.10;;;;;;;;;;5049191;28;20465;-84
2023/02/22 05:16:02;;;;;;;6.03;4.88;;;;;;;;;;5051071;28;20432;-84
2023/02/22 05:18:28;;;;;;;5.35;4.85;;;;;;;;;;5038045;28;20424;-84
2023/02/22 05:20:54;;;;;;;5.27;4.60;;;;;;;;;;5036811;28;20387;-84
2023/02/22 05:23:20;;;;;;;6.03;5.45;;;;;;;;;;5044889;28;20409;-83
2023/02/22 05:25:46;;;;;;;6.00;5.28;;;;;;;;;;5053238;28;20787;-84
2023/02/22 05:28:13;;;;;;;5.03;4.53;;;;;;;;;;5052006;28;20385;-83
2023/02/22 05:30:39;;;;;;;6.20;5.50;;;;;;;;;;5051759;28;20453;-84
2023/02/22 05:33:06;;;;;;;9.25;6.63;;;;;;;;;;5051558;28;20803;-84
2023/02/22 05:35:32;;;;;;;6.28;5.35;;;;;;;;;;5034038;28;20421;-84
2023/02/22 05:38:00;;;;;;;6.30;5.50;;;;;;;;;;5048428;28;20420;-84
2023/02/22 05:40:27;;;;;;;6.47;5.40;;;;;;;;;;5051586;28;20386;-84
2023/02/22 05:42:53;;;;;;;5.70;4.75;;;;;;;;;;5050392;28;20417;-84
2023/02/22 05:45:21;;;;;;;5.25;4.60;;;;;;;;;;5051744;28;20392;-84
2023/02/22 05:47:47;;;;;;;5.80;5.07;;;;;;;;;;5033501;28;20404;-85
2023/02/22 05:50:13;;;;;;;5.53;4.50;;;;;;;;;;5051862;28;20396;-84
2023/02/22 05:52:39;;;;;;;5.95;4.40;;;;;;;;;;5054987;28;20423;-84
2023/02/22 05:55:06;;;;;;;4.90;4.40;;;;;;;;;;5042267;28;20442;-83
2023/02/22 05:57:32;;;;;;;7.63;4.65;;;;;;;;;;5035246;28;20384;-84
2023/02/22 05:59:58;;;;;;;4.80;4.30;;;;;;;;;;5031271;28;20397;-83
2023/02/22 06:02:24;;;;;;;5.07;4.57;;;;;;;;;;5040563;28;20386;-83
2023/02/22 06:04:50;;;;;;;5.90;4.50;;;;;;;;;;5031802;28;20503;-84
2023/02/22 06:07:16;;;;;;;4.85;4.45;;;;;;;;;;5050095;28;20385;-84
2023/02/22 06:09:42;;;;;;;4.87;4.43;;;;;;;;;;5050050;28;20377;-84
2023/02/22 06:12:08;;;;;;;5.95;4.68;;;;;;;;;;5050092;28;20783;-84
2023/02/22 06:14:34;;;;;;;5.45;4.95;;;;;;;;;;5050125;28;20852;-85
2023/02/22 06:17:00;;;;;;;5.72;4.40;;;;;;;;;;5050298;28;20386;-85
2023/02/22 06:19:27;;;;;;;5.28;4.78;;;;;;;;;;5051747;28;20387;-85
2023/02/22 06:21:54;;;;;;;5.45;4.95;;;;;;;;;;5051586;28;20391;-84
2023/02/22 06:24:20;;;;;;;6.35;4.70;;;;;;;;;;5060106;28;20407;-85
2023/02/22 06:26:47;;;;;;;5.72;5.00;;;;;;;;;;5042043;28;20379;-85
2023/02/22 06:29:13;;;;;;;6.38;4.70;;;;;;;;;;5038447;28;20468;-85
2023/02/22 06:31:39;;;;;;;4.73;4.30;;;;;;;;;;5051432;28;20472;-85
2023/02/22 06:34:05;;;;;;;5.57;4.90;;;;;;;;;;5033313;28;20472;-85
2023/02/22 06:36:31;;;;;;;7.00;5.13;;;;;;;;;;5051518;28;20392;-85
2023/02/22 06:38:57;;;;;;;5.50;4.90;;;;;;;;;;5051411;28;20401;-85
2023/02/22 06:41:23;;;;;;;5.93;5.35;;;;;;;;;;5051302;28;20375;-85
2023/02/22 06:43:49;;;;;;;11.95;10.55;;;;;;;;;;5051208;28;20432;-84
2023/02/22 06:46:15;;;;;;;7.43;5.77;;;;;;;;;;5051294;28;20385;-85
2023/02/22 06:48:41;;;;;;;7.47;5.00;;;;;;;;;;5051284;28;20381;-85
2023/02/22 06:51:08;;;;;;;5.28;4.70;;;;;;;;;;5052003;28;20920;-84
2023/02/22 06:53:34;;;;;;;5.00;4.53;;;;;;;;;;5050960;28;20519;-84
2023/02/22 06:56:01;;;;;;;5.00;4.50;;;;;;;;;;5050977;28;20389;-85
2023/02/22 06:58:27;;;;;;;6.68;6.03;;;;;;;;;;5051196;28;20461;-84
2023/02/22 07:00:53;;;;;;;5.20;4.43;;;;;;;;;;5047716;28;20394;-84
2023/02/22 07:03:19;;;;;;;6.57;5.95;;;;;;;;;;5036284;28;20406;-85
2023/02/22 07:05:45;;;;;;;4.72;4.32;;;;;;;;;;5041048;28;20889;-84
2023/02/22 07:08:11;;;;;;;4.47;4.07;;;;;;;;;;5050989;28;20871;-84
2023/02/22 07:10:38;;;;;;;5.15;4.60;;;;;;;;;;5050963;28;20417;-85
2023/02/22 07:13:05;;;;;;;6.45;5.20;;;;;;;;;;5050874;28;20377;-85
2023/02/22 07:15:32;;;;;;;6.13;5.55;;;;;;;;;;5052159;28;20476;-84
2023/02/22 07:17:58;;;;;;;5.90;5.40;;;;;;;;;;5055158;28;20761;-85
2023/02/22 07:20:25;;;;;;;7.28;5.75;;;;;;;;;;5055160;28;20389;-84
2023/02/22 07:22:52;;;;;;;5.97;4.80;;;;;;;;;;5055221;28;20385;-84
2023/02/22 07:25:18;;;;;;;5.73;5.03;;;;;;;;;;5054807;28;20364;-84
2023/02/22 07:27:44;;;;;;;5.50;5.00;;;;;;;;;;5054891;28;20381;-85
2023/02/22 07:30:18;;;;;;;6.45;5.85;;;;;;;;;;5054918;28;20862;-84
2023/02/22 07:32:45;;;;;;;5.68;5.18;;;;;;;;;;5054742;28;20862;-86
2023/02/22 07:35:17;;;;;;;6.90;6.25;;;;;;;;;;5054893;28;20901;-84
2023/02/22 07:37:43;;;;;;;7.13;5.50;;;;;;;;;;5036883;28;20451;-85
2023/02/22 07:40:10;;;;;;;7.78;7.07;;;;;;;;;;5054795;28;20412;-85
2023/02/22 07:42:55;;;;;;;9.30;8.60;;;;;;;;;;5054328;28;20389;-84
2023/02/22 07:45:21;;;;;;;8.88;8.07;;;;;;;;;;5054626;28;20385;-85
2023/02/22 07:47:47;;;;;;;8.02;7.00;;;;;;;;;;5052725;28;20522;-85
2023/02/22 07:50:17;;;;;;;6.47;5.82;;;;;;;;;;5054529;28;20386;-84
2023/02/22 07:52:46;;;;;;;5.50;5.00;;;;;;;;;;5054404;28;20443;-84
2023/02/22 07:55:14;;;;;;;5.33;4.83;;;;;;;;;;5054315;28;20961;-84
2023/02/22 07:57:40;;;;;;;6.93;5.05;;;;;;;;;;5054508;28;20850;-85
2023/02/22 08:00:06;;;;;;;6.22;5.10;;;;;;;;;;5054361;28;20388;-84
2023/02/22 08:02:32;;;;;;;5.80;4.93;;;;;;;;;;5053975;28;20400;-87
2023/02/22 08:04:58;;;;;;;6.05;5.50;;;;;;;;;;5036293;28;20410;-84
2023/02/22 08:07:24;;;;;;;6.72;5.30;;;;;;;;;;5054293;28;20533;-83
2023/02/22 08:09:50;;;;;;;6.50;5.90;;;;;;;;;;5053097;28;20370;-85
2023/02/22 08:12:16;;;;;;;6.43;5.13;;;;;;;;;;5041437;28;20774;-83
2023/02/22 08:14:42;;;;;;;5.30;4.80;;;;;;;;;;5054083;28;20409;-85
2023/02/22 08:17:08;;;;;;;5.40;4.90;;;;;;;;;;5053907;28;20854;-84
2023/02/22 08:19:34;;;;;;;6.05;4.93;;;;;;;;;;5054100;28;20381;-84
2023/02/22 08:22:00;;;;;;;6.53;5.10;;;;;;;;;;5036699;28;20392;-84
2023/02/22 08:24:26;;;;;;;4.90;4.50;;;;;;;;;;5035844;28;20409;-84
2023/02/22 08:26:52;;;;;;;6.15;5.55;;;;;;;;;;5053734;28;20914;-85
2023/02/22 08:29:18;;;;;;;5.97;5.38;;;;;;;;;;5053858;28;20406;-85
2023/02/22 08:31:49;;;;;;;7.95;5.50;;;;;;;;;;5054015;28;20405;-84
2023/02/22 08:34:15;;;;;;;5.50;5.00;;;;;;;;;;5053738;28;20439;-84
2023/02/22 08:36:42;;;;;;;5.80;5.30;;;;;;;;;;5053717;28;20393;-84
2023/02/22 08:39:08;;;;;;;8.30;5.28;;;;;;;;;;5053556;28;20385;-84
2023/02/22 08:41:34;;;;;;;5.80;5.20;;;;;;;;;;5053503;28;20377;-85
2023/02/22 08:44:01;;;;;;;6.28;5.68;;;;;;;;;;5053311;28;20421;-84
2023/02/22 08:46:27;;;;;;;8.35;5.70;;;;;;;;;;5053413;28;20535;-84
2023/02/22 08:48:53;;;;;;;5.50;4.90;;;;;;;;;;5053422;28;20393;-85
2023/02/22 08:51:20;;;;;;;6.43;5.20;;;;;;;;;;5051341;28;20426;-84
2023/02/22 08:53:46;;;;;;;7.67;6.00;;;;;;;;;;5050784;28;20404;-85
2023/02/22 08:56:12;;;;;;;8.82;6.13;;;;;;;;;;5053280;28;20390;-83
2023/02/22 08:58:38;;;;;;;6.38;5.78;;;;;;;;;;5053323;28;20389;-85
2023/02/22 09:01:04;;;;;;;6.30;5.70;;;;;;;;;;5040211;28;20399;-85
2023/02/22 09:03:30;;;;;;;6.57;5.65;;;;;;;;;;5052174;28;20414;-85
2023/02/22 09:05:58;;;;;;;7.53;6.65;;;;;;;;;;5053164;28;20377;-84
2023/02/22 09:08:24;;;;;;;7.70;6.35;;;;;;;;;;5053003;28;20385;-85
2023/02/22 09:10:50;;;;;;;7.63;6.93;;;;;;;;;;5045913;28;20429;-84
2023/02/22 09:13:16;;;;;;;8.38;7.30;;;;;;;;;;5048514;28;20385;-84
2023/02/22 09:15:42;;;;;;;7.60;6.90;;;;;;;;;;5052990;28;20914;-85
2023/02/22 09:18:11;;;;;;;9.70;8.70;;;;;;;;;;5035296;28;20414;-84
2023/02/22 09:20:37;;;;;;;8.50;7.70;;;;;;;;;;5052998;28;20742;-85
2023/02/22 09:23:04;;;;;;;12.52;8.93;;;;;;;;;;5053018;28;20405;-83
2023/02/22 09:25:30;;;;;;;11.73;9.13;;;;;;;;;;5041941;28;20477;-83
2023/02/22 09:27:57;;;;;;;14.23;10.35;;;;;;;;;;5052251;28;20739;-84
2023/02/22 09:30:23;;;;;;;11.63;10.35;;;;;;;;;;5049122;28;20854;-85
2023/02/22 09:32:50;;;;;;;12.13;9.80;;;;;;;;;;5052864;28;20393;-85
2023/02/22 09:35:16;;;;;;;15.77;11.32;;;;;;;;;;5052703;28;20385;-85
2023/02/22 09:37:43;;;;;;;15.73;12.93;;;;;;;;;;5034405;28;20728;-85
2023/02/22 09:40:16;;;;;;;13.15;10.80;;;;;;;;;;5051516;28;20388;-85
2023/02/22 09:42:45;;;;;;;14.70;10.97;;;;;;;;;;5035516;28;20396;-86
2023/02/22 09:45:35;;;;;;;18.13;11.63;;;;;;;;;;5043059;28;20385;-85
2023/02/22 09:48:03;;;;;;;19.27;12.70;;;;;;;;;;5053033;28;20933;-88
2023/02/22 09:50:34;;;;;;;24.33;13.73;;;;;;;;;;5054428;28;20385;-87
2023/02/22 09:53:03;;;;;;;30.17;16.77;;;;;;;;;;5052712;28;20786;-88
2023/02/22 09:55:46;;;;;;;23.23;16.63;;;;;;;;;;5050589;28;20451;-84
2023/02/22 09:58:33;;;;;;;25.02;15.80;;;;;;;;;;5032869;28;20385;-86
2023/02/22 10:01:13;;;;;;;21.85;15.60;;;;;;;;;;5052000;28;20468;-88
2023/02/22 10:03:50;;;;;;;22.40;16.35;;;;;;;;;;5039376;28;20405;-87
2023/02/22 10:06:20;;;;;;;20.90;15.70;;;;;;;;;;5044929;28;20378;-88
2023/02/22 10:08:46;;;;;;;23.95;17.35;;;;;;;;;;5041800;28;20425;-86
2023/02/22 10:11:31;;;;;;;24.23;16.98;;;;;;;;;;5032692;28;20383;-85
2023/02/22 10:14:23;;;;;;;23.30;17.10;;;;;;;;;;5028598;28;20377;-86
2023/02/22 10:17:08;;;;;;;16.90;15.13;;;;;;;;;;5004798;28;20866;-86
2023/02/22 10:19:34;;;;;;;19.42;14.77;;;;;;;;;;5033990;28;20758;-87
2023/02/22 10:22:19;;;;;;;20.30;15.02;;;;;;;;;;5051737;28;20392;-86
2023/02/22 10:25:13;;;;;;;19.13;15.57;;;;;;;;;;5051571;28;20416;-86
2023/02/22 10:27:42;;;;;;;15.40;13.75;;;;;;;;;;5051688;28;20384;-85
2023/02/22 10:30:26;;;;;;;16.40;14.70;;;;;;;;;;5051557;28;20928;-86
2023/02/22 10:33:12;;;;;;;18.58;13.90;;;;;;;;;;5051364;28;20879;-84
2023/02/22 10:35:40;;;;;;;19.70;14.63;;;;;;;;;;5034350;28;20381;-84
2023/02/22 10:38:15;;;;;;;19.05;14.20;;;;;;;;;;5051624;28;20870;-90
2023/02/22 10:40:43;;;;;;;16.77;15.00;;;;;;;;;;5043913;28;20376;-84
2023/02/22 10:43:10;;;;;;;17.75;14.70;;;;;;;;;;5023759;28;20447;-85
2023/02/22 10:45:36;;;;;;;19.70;15.05;;;;;;;;;;5051362;28;20429;-84
2023/02/22 10:48:07;;;;;;;21.38;16.92;;;;;;;;;;5051141;28;20373;-85
2023/02/22 10:50:34;;;;;;;16.73;15.00;;;;;;;;;;5036989;28;20385;-83
2023/02/22 10:53:00;;;;;;;18.55;15.63;;;;;;;;;;5051101;28;20378;-83
2023/02/22 10:55:26;;;;;;;17.30;15.50;;;;;;;;;;5051193;28;20389;-85
2023/02/22 10:57:59;;;;;;;18.15;16.15;;;;;;;;;;5045925;28;20388;-86
2023/02/22 11:00:28;;;;;;;17.05;15.35;;;;;;;;;;5051198;28;20378;-84
2023/02/22 11:02:59;;;;;;;16.40;14.70;;;;;;;;;;5050871;28;20385;-85
2023/02/22 11:05:40;;;;;;;20.33;15.15;;;;;;;;;;5050746;28;20392;-84
2023/02/22 11:08:21;;;;;;;17.08;15.27;;;;;;;;;;5033692;28;20384;-84
2023/02/22 11:10:48;;;;;;;17.02;15.20;;;;;;;;;;5051625;28;20455;-85
2023/02/22 11:13:37;;;;;;;20.85;15.70;;;;;;;;;;5051024;28;20393;-84
2023/02/22 11:16:20;;;;;;;19.92;15.65;;;;;;;;;;5020527;28;20821;-84
2023/02/22 11:18:47;;;;;;;17.83;15.30;;;;;;;;;;5050844;28;20378;-84
2023/02/22 11:21:21;;;;;;;21.05;15.20;;;;;;;;;;5052618;28;20471;-84
2023/02/22 11:23:49;;;;;;;16.17;14.48;;;;;;;;;;5050818;28;20533;-85
2023/02/22 11:26:18;;;;;;;16.97;14.50;;;;;;;;;;5050847;28;20385;-84
2023/02/22 11:28:48;;;;;;;22.58;16.30;;;;;;;;;;5050924;28;20420;-84
2023/02/22 11:31:14;;;;;;;23.20;15.57;;;;;;;;;;5050879;28;20478;-84
2023/02/22 11:33:45;;;;;;;19.00;15.20;;;;;;;;;;5049446;28;20374;-84
2023/02/22 11:36:15;;;;;;;19.05;15.52;;;;;;;;;;5050542;28;20474;-91
2023/02/22 11:38:52;;;;;;;17.97;15.03;;;;;;;;;;5040550;28;20382;-85
2023/02/22 11:41:23;;;;;;;17.67;15.02;;;;;;;;;;5050582;28;20373;-84
2023/02/22 11:43:50;;;;;;;16.45;14.85;;;;;;;;;;5034075;28;20409;-85
2023/02/22 11:46:18;;;;;;;16.23;14.55;;;;;;;;;;5047394;28;20385;-83
2023/02/22 11:48:53;;;;;;;18.57;15.43;;;;;;;;;;5050775;28;20369;-85
2023/02/22 11:51:20;;;;;;;16.60;14.90;;;;;;;;;;5032712;28;20385;-83
2023/02/22 11:53:55;;;;;;;16.38;14.75;;;;;;;;;;5050396;28;20396;-83
2023/02/22 11:56:24;;;;;;;16.65;14.80;;;;;;;;;;5050547;28;20439;-83
2023/02/22 11:58:52;;;;;;;16.77;15.07;;;;;;;;;;5050573;28;20465;-83
2023/02/22 12:01:36;;;;;;;15.65;14.15;;;;;;;;;;5051342;28;20866;-83
2023/02/22 12:04:23;;;;;;;17.83;15.73;;;;;;;;;;5054125;28;20916;-83
2023/02/22 12:07:07;;;;;;;15.45;13.95;;;;;;;;;;5054201;28;20468;-83
2023/02/22 12:09:37;;;;;;;16.45;14.75;;;;;;;;;;5036330;28;20373;-83
2023/02/22 12:12:03;;;;;;;15.88;14.25;;;;;;;;;;5054076;28;20447;-83
2023/02/22 12:14:38;;;;;;;15.93;14.23;;;;;;;;;;5054275;28;20386;-84
2023/02/22 12:17:04;;;;;;;15.82;14.20;;;;;;;;;;5053968;28;20397;-84
2023/02/22 12:19:36;;;;;;;15.65;14.15;;;;;;;;;;5042114;28;20799;-84
2023/02/22 12:22:06;;;;;;;14.35;12.88;;;;;;;;;;5047769;28;20466;-84
2023/02/22 12:24:52;;;;;;;14.53;13.03;;;;;;;;;;5053611;28;20413;-83
2023/02/22 12:27:22;;;;;;;14.18;12.68;;;;;;;;;;5053994;28;20388;-83
2023/02/22 12:29:48;;;;;;;13.80;12.48;;;;;;;;;;5053974;28;20380;-79
2023/02/22 12:32:22;;;;;;;13.40;12.23;;;;;;;;;;5053488;28;20378;-80
2023/02/22 12:34:53;;;;;;;13.82;12.43;;;;;;;;;;5053857;28;20380;-80
2023/02/22 12:37:26;;;;;;;14.23;13.00;;;;;;;;;;5039576;28;20383;-80
2023/02/22 12:40:28;;;;;;;14.15;12.65;;;;;;;;;;5053632;28;20456;-79
2023/02/22 12:43:12;;;;;;;13.35;12.05;;;;;;;;;;4952540;28;20405;-80
2023/02/22 12:45:42;;;;;;;13.60;12.15;;;;;;;;;;5034034;28;20465;-80
2023/02/22 12:48:20;;;;;;;13.30;12.10;;;;;;;;;;5052770;28;20808;-80
2023/02/22 12:50:53;;;;;;;13.25;11.98;;;;;;;;;;5031392;28;20389;-79
2023/02/22 12:53:24;;;;;;;13.68;12.32;;;;;;;;;;5051806;28;20530;-78
2023/02/22 12:55:52;;;;;;;13.35;11.95;;;;;;;;;;5053429;28;20413;-79
2023/02/22 12:58:23;;;;;;;13.32;12.13;;;;;;;;;;5053331;28;20393;-78
2023/02/22 13:01:08;;;;;;;12.60;11.40;;;;;;;;;;5053380;28;20381;-79
2023/02/22 13:03:38;;;;;;;12.98;11.57;;;;;;;;;;5053014;28;20413;-79
2023/02/22 13:06:10;;;;;;;13.45;12.13;;;;;;;;;;5048785;28;20466;-79
2023/02/22 13:08:57;;;;;;;13.15;11.75;;;;;;;;;;5030038;28;20400;-79
2023/02/22 13:11:26;;;;;;;12.35;11.25;;;;;;;;;;5053141;28;20385;-79
2023/02/22 13:14:07;;;;;;;11.85;10.77;;;;;;;;;;5051958;28;20389;-79
2023/02/22 13:16:36;;;;;;;12.80;11.70;;;;;;;;;;5052864;28;20385;-79
2023/02/22 13:19:20;;;;;;;13.57;12.07;;;;;;;;;;5052938;28;20472;-79
2023/02/22 13:21:57;;;;;;;12.88;11.63;;;;;;;;;;5052948;28;20385;-79
2023/02/22 13:24:32;;;;;;;13.23;11.95;;;;;;;;;;5036753;28;20412;-78
2023/02/22 13:27:05;;;;;;;12.68;11.35;;;;;;;;;;5052849;28;20464;-79
2023/02/22 13:29:37;;;;;;;12.57;11.27;;;;;;;;;;5052674;28;20386;-79
2023/02/22 13:32:10;;;;;;;12.50;11.25;;;;;;;;;;5034682;28;20880;-79
2023/02/22 13:34:42;;;;;;;12.27;11.07;;;;;;;;;;5050765;28;20450;-79
2023/02/22 13:37:27;;;;;;;10.82;9.73;;;;;;;;;;5043573;28;20393;-79
2023/02/22 13:39:53;;;;;;;11.38;10.18;;;;;;;;;;5052418;28;20442;-79
2023/02/22 13:42:21;;;;;;;11.43;10.32;;;;;;;;;;5054736;28;20384;-79
2023/02/22 13:45:26;;;;;;;10.30;9.40;;;;;;;;;;5052265;28;20422;-79
2023/02/22 13:47:57;;;;;;;11.00;9.90;;;;;;;;;;4968175;28;20458;-79
2023/02/22 13:50:23;;;;;;;10.80;9.50;;;;;;;;;;4976596;28;20497;-79
2023/02/22 13:52:50;;;;;;;10.40;9.50;;;;;;;;;;4970635;28;20431;-78
2023/02/22 13:55:19;;;;;;;12.15;10.23;;;;;;;;;;4968828;28;20412;-79
2023/02/22 13:57:48;;;;;;;11.65;10.05;;;;;;;;;;4969250;28;20514;-79
2023/02/22 14:00:14;;;;;;;10.52;9.50;;;;;;;;;;4970915;28;20427;-79
2023/02/22 14:03:00;;;;;;;10.70;9.57;;;;;;;;;;4969768;28;20435;-79
2023/02/22 14:05:41;;;;;;;10.02;9.18;;;;;;;;;;4971088;28;20392;-79
2023/02/22 14:08:27;;;;;;;9.93;9.02;;;;;;;;;;4971227;28;20388;-79
2023/02/22 14:10:56;;;;;;;9.95;9.05;;;;;;;;;;4947104;28;20388;-78
2023/02/22 14:13:25;;;;;;;11.00;9.95;;;;;;;;;;4970982;28;20385;-81
2023/02/22 14:16:01;;;;;;;11.73;10.20;;;;;;;;;;4972532;28;20388;-78
2023/02/22 14:18:28;;;;;;;11.52;9.27;;;;;;;;;;4997306;28;20395;-78
2023/02/22 14:21:14;;;;;;;9.77;8.77;;;;;;;;;;5049452;28;20377;-80
2023/02/22 14:23:50;;;;;;;9.65;8.68;;;;;;;;;;5051494;28;20401;-80
2023/02/22 14:26:25;;;;;;;9.20;8.30;;;;;;;;;;5051531;28;20393;-78
2023/02/22 14:28:54;;;;;;;9.23;8.43;;;;;;;;;;5051616;28;20366;-80
2023/02/22 14:31:22;;;;;;;11.15;8.55;;;;;;;;;;5051511;28;20370;-78
2023/02/22 14:33:55;;;;;;;9.40;8.43;;;;;;;;;;5051446;28;20400;-78
2023/02/22 14:36:39;;;;;;;9.40;8.52;;;;;;;;;;5051485;28;20382;-80
2023/02/22 14:39:30;;;;;;;9.80;8.90;;;;;;;;;;5051459;28;20392;-80
2023/02/22 14:42:03;;;;;;;10.05;8.82;;;;;;;;;;5040269;28;20459;-80
2023/02/22 14:44:49;;;;;;;9.80;8.82;;;;;;;;;;5051265;28;20417;-80
2023/02/22 14:47:19;;;;;;;9.70;8.77;;;;;;;;;;5034499;28;20390;-79
2023/02/22 14:49:46;;;;;;;9.93;8.82;;;;;;;;;;5051159;28;20874;-78
2023/02/22 14:52:18;;;;;;;13.13;9.82;;;;;;;;;;5047507;28;20392;-79